Time;durP1;ratioP1;P1;durP2;ratioP2;P2;SDS_P1;SDS_P2;PMS_P1;PMS_P2;Temp;Humidity;BMP_temperature;BMP_pressure;BME280_temperature;BME280_humidity;BME280_pressure;Samples;Min_cycle;Max_cycle;Signal;HPM_P1;HPM_P2
2022/12/23 00:01:51;;;;;;;23.47;17.63;;;10.00;85.70;;;13.00;60.01;100109.63;5017982;28;20246;-55
2022/12/23 00:04:18;;;;;;;21.70;17.27;;;10.00;85.70;;;13.00;59.99;100110.47;5018534;28;20227;-53
2022/12/23 00:06:45;;;;;;;29.10;21.33;;;10.00;85.70;;;12.99;59.98;100110.66;5033385;28;20221;-55
2022/12/23 00:09:12;;;;;;;25.53;20.13;;;10.00;85.60;;;12.95;60.04;100115.53;5036897;28;20211;-54
2022/12/23 00:15:04;;;;;;;22.83;17.97;;;10.00;85.60;;;12.93;60.21;100114.94;5037646;28;20194;-55
2022/12/23 00:17:12;;;;;;;23.03;17.47;;;10.00;85.70;;;12.92;60.30;100113.31;5039918;28;20202;-51
2022/12/23 00:19:54;;;;;;;24.80;18.03;;;10.00;85.60;;;12.90;60.24;100105.59;5039057;28;20289;-53
2022/12/23 00:23:03;;;;;;;27.60;20.77;;;9.90;86.70;;;12.89;60.05;100103.97;5037537;28;20205;-53
2022/12/23 00:25:10;;;;;;;26.77;17.97;;;10.00;85.70;;;12.87;60.28;100110.47;5037876;28;20205;-53
2022/12/23 00:27:39;;;;;;;31.60;19.43;;;9.90;87.50;;;12.88;60.49;100104.19;5038280;28;20190;-54
2022/12/23 00:30:09;;;;;;;26.00;18.30;;;9.90;87.20;;;12.90;60.65;100104.78;5037808;28;20222;-52
2022/12/23 00:32:36;;;;;;;26.27;19.80;;;9.90;87.40;;;12.92;60.85;100105.38;5037102;28;20639;-54
2022/12/23 00:35:04;;;;;;;25.03;18.17;;;9.90;87.70;;;12.95;60.45;100104.97;5037635;28;20621;-54
2022/12/23 00:37:31;;;;;;;22.63;17.23;;;9.90;87.60;;;12.97;60.64;100105.56;5036639;28;20210;-52
2022/12/23 00:42:52;;;;;;;27.10;19.37;;;9.90;87.70;;;13.01;60.69;100122.63;5016363;28;20195;-54
2022/12/23 00:45:20;;;;;;;26.73;19.87;;;10.00;86.80;;;13.05;61.11;100115.91;5015727;28;20197;-52
2022/12/23 00:50:38;;;;;;;26.53;19.43;;;10.00;86.90;;;13.08;60.75;100123.47;5037303;28;20702;-52
2022/12/23 00:53:05;;;;;;;25.47;19.47;;;10.10;87.10;;;13.13;60.91;100130.78;5036587;28;20197;-54
2022/12/23 00:55:32;;;;;;;25.67;19.50;;;10.10;87.20;;;13.16;61.20;100135.66;5019272;28;20214;-52
2022/12/23 00:57:59;;;;;;;26.10;19.80;;;10.10;87.20;;;13.17;60.73;100127.50;5035222;28;20538;-55
2022/12/23 01:06:02;;;;;;;30.40;21.37;;;10.20;86.70;;;13.10;60.75;100129.34;5037537;28;20648;-55
2022/12/23 01:08:29;;;;;;;24.73;19.50;;;10.20;86.60;;;13.11;60.73;100123.06;5035530;28;20202;-52
2022/12/23 01:10:56;;;;;;;25.63;18.87;;;10.10;86.50;;;13.12;60.58;100129.16;5038698;28;20198;-54
2022/12/23 01:13:23;;;;;;;23.60;19.03;;;10.10;86.50;;;13.12;60.53;100129.94;5036528;28;20284;-53
2022/12/23 01:15:51;;;;;;;35.23;20.13;;;10.10;86.60;;;13.13;60.91;100136.88;5035116;28;20210;-52
2022/12/23 01:18:18;;;;;;;24.17;18.00;;;10.10;87.00;;;13.15;60.88;100140.13;5035002;28;20225;-52
2022/12/23 01:20:45;;;;;;;27.27;18.93;;;10.10;87.20;;;13.15;60.73;100134.84;5041080;28;20194;-52
2022/12/23 01:23:11;;;;;;;25.27;18.17;;;10.10;87.20;;;13.13;60.70;100136.06;5034808;28;20194;-52
2022/12/23 01:25:38;;;;;;;26.20;19.43;;;10.10;87.00;;;13.09;60.90;100135.66;5034781;28;20197;-52
2022/12/23 01:28:05;;;;;;;27.00;18.90;;;10.10;87.00;;;13.10;60.94;100137.28;5033518;28;20209;-54
2022/12/23 01:30:32;;;;;;;23.53;18.37;;;10.10;87.00;;;13.12;61.11;100145.03;5019494;28;20572;-52
2022/12/23 01:33:00;;;;;;;26.50;19.83;;;10.10;87.10;;;13.14;61.07;100142.97;5032437;28;20596;-52
2022/12/23 01:35:27;;;;;;;23.93;17.53;;;10.10;87.20;;;13.15;61.15;100147.22;5035652;28;20284;-52
2022/12/23 01:37:54;;;;;;;24.33;18.00;;;10.10;87.20;;;13.15;60.84;100145.41;5035205;28;20663;-53
2022/12/23 01:40:21;;;;;;;22.83;17.20;;;10.10;87.10;;;13.16;60.72;100147.03;5035815;28;20214;-53
2022/12/23 01:42:48;;;;;;;24.07;18.43;;;10.10;87.10;;;13.15;60.58;100145.41;5035175;28;20198;-55
2022/12/23 01:45:19;;;;;;;25.23;19.63;;;10.10;87.00;;;13.16;60.79;100146.22;5035197;28;20213;-53
2022/12/23 01:47:52;;;;;;;24.27;18.67;;;10.10;87.20;;;13.15;60.74;100144.59;5036357;28;20190;-51
2022/12/23 01:50:26;;;;;;;24.23;18.80;;;10.10;87.20;;;13.15;60.72;100141.94;5034473;28;20211;-52
2022/12/23 01:53:02;;;;;;;21.80;16.90;;;10.10;87.20;;;13.13;60.87;100142.16;5028073;28;20248;-53
2022/12/23 01:55:42;;;;;;;21.33;16.97;;;10.10;87.30;;;13.12;60.73;100156.38;5015132;28;20210;-55
2022/12/23 01:58:15;;;;;;;24.00;18.53;;;10.10;87.30;;;13.12;60.99;100156.38;5014740;28;20198;-52
2022/12/23 02:03:41;;;;;;;20.67;16.83;;;10.10;87.70;;;13.12;61.10;100155.59;5015644;28;20229;-53
2022/12/23 02:09:17;;;;;;;25.40;19.80;;;10.10;87.80;;;13.12;61.17;100163.50;5032788;28;20218;-55
2022/12/23 02:12:35;;;;;;;23.20;17.40;;;10.10;87.90;;;13.10;62.00;100162.91;5036692;28;20245;-56
2022/12/23 02:18:50;;;;;;;21.23;17.57;;;10.10;88.10;;;13.11;61.18;100154.78;5034275;28;20194;-56
2022/12/23 02:21:40;;;;;;;26.17;19.63;;;10.20;87.90;;;13.13;61.40;100158.00;5034644;28;20190;-53
2022/12/23 02:24:56;;;;;;;24.63;17.17;;;10.20;88.00;;;13.14;61.51;100166.75;5033747;28;20187;-56
2022/12/23 02:27:30;;;;;;;24.17;18.63;;;10.20;88.00;;;13.18;61.57;100166.16;5035100;28;20198;-54
2022/12/23 02:30:35;;;;;;;21.37;16.77;;;10.20;88.10;;;13.18;61.29;100167.97;5033506;28;20209;-52
2022/12/23 02:33:29;;;;;;;20.70;16.67;;;10.20;87.90;;;13.17;61.27;100161.88;5021991;28;20246;-53
2022/12/23 02:36:10;;;;;;;20.43;16.50;;;10.20;87.60;;;13.18;61.33;100165.31;5013954;28;20199;-52
2022/12/23 02:38:54;;;;;;;20.40;17.33;;;10.20;87.50;;;13.19;61.37;100173.03;5013085;28;20635;-52
2022/12/23 02:41:29;;;;;;;24.20;18.80;;;10.20;87.70;;;13.21;61.34;100171.03;5013649;28;20198;-52
2022/12/23 02:44:02;;;;;;;21.37;16.80;;;10.20;87.70;;;13.23;61.16;100174.28;5013636;28;20253;-53
2022/12/23 02:46:37;;;;;;;22.43;17.33;;;10.30;87.80;;;13.25;61.31;100182.81;5026319;28;20259;-53
2022/12/23 02:49:11;;;;;;;21.80;17.17;;;10.30;87.70;;;13.27;61.30;100182.59;5033454;28;20748;-52
2022/12/23 02:51:45;;;;;;;26.70;18.60;;;10.30;87.70;;;13.29;60.70;100188.47;5033502;28;20240;-53
2022/12/23 02:54:18;;;;;;;24.83;19.43;;;10.30;87.70;;;13.29;61.20;100194.56;5033808;28;20186;-54
2022/12/23 02:56:49;;;;;;;25.30;19.10;;;10.30;87.70;;;13.29;61.22;100191.94;5036489;28;20241;-55
2022/12/23 02:59:21;;;;;;;24.70;18.93;;;10.20;87.70;;;13.29;61.39;100189.28;5035587;28;20213;-54
2022/12/23 03:01:52;;;;;;;23.83;18.27;;;10.20;88.00;;;13.31;61.37;100197.03;5036530;28;20563;-55
2022/12/23 03:04:20;;;;;;;23.17;17.90;;;10.30;88.30;;;13.35;61.56;100188.50;5036559;28;20270;-57
2022/12/23 03:06:51;;;;;;;23.53;17.40;;;10.30;88.40;;;13.37;61.57;100197.00;5036514;28;20237;-52
2022/12/23 03:09:33;;;;;;;23.47;17.97;;;10.30;88.40;;;13.39;61.43;100202.09;5036298;28;20214;-55
2022/12/23 03:12:10;;;;;;;21.53;16.93;;;10.30;88.30;;;13.41;61.27;100198.22;5037471;28;20193;-53
2022/12/23 03:15:04;;;;;;;22.33;18.03;;;10.40;88.10;;;13.40;61.33;100206.38;5040227;28;20190;-53
2022/12/23 03:17:52;;;;;;;24.63;18.37;;;10.40;87.80;;;13.38;61.32;100201.28;5017172;28;20182;-53
2022/12/23 03:20:27;;;;;;;21.10;16.20;;;10.40;87.60;;;13.37;61.27;100202.31;5017022;28;20226;-53
2022/12/23 03:23:02;;;;;;;23.30;18.13;;;10.40;87.40;;;13.39;61.06;100213.47;5017180;28;20191;-53
2022/12/23 03:25:36;;;;;;;22.40;16.83;;;10.40;87.40;;;13.40;61.09;100217.75;5017472;28;20202;-54
2022/12/23 03:28:14;;;;;;;21.13;16.77;;;10.40;87.40;;;13.40;61.11;100215.13;5016730;28;20187;-57
2022/12/23 03:30:49;;;;;;;21.87;16.73;;;10.40;87.60;;;13.43;60.99;100217.31;5017827;28;20536;-52
2022/12/23 03:33:25;;;;;;;26.73;19.77;;;10.40;87.70;;;13.45;61.01;100220.56;5036451;28;20178;-56
2022/12/23 03:35:59;;;;;;;25.57;18.87;;;10.40;87.60;;;13.45;61.09;100220.56;5037612;28;20194;-52
2022/12/23 03:38:31;;;;;;;24.13;18.20;;;10.40;87.50;;;13.45;61.19;100222.44;5037649;28;20225;-56
2022/12/23 03:41:05;;;;;;;29.20;21.70;;;10.40;87.60;;;13.44;61.04;100221.63;5037630;28;20284;-53
2022/12/23 03:43:38;;;;;;;28.37;20.63;;;10.40;87.60;;;13.42;60.92;100225.47;5037537;28;20175;-53
2022/12/23 03:46:18;;;;;;;27.83;20.97;;;10.40;87.50;;;13.38;60.87;100235.63;5024041;28;20195;-55
2022/12/23 03:48:52;;;;;;;25.30;19.07;;;10.40;87.50;;;13.36;61.10;100237.66;5035837;28;20268;-54
2022/12/23 03:51:27;;;;;;;24.93;18.80;;;10.30;87.40;;;13.33;61.10;100239.94;5037729;28;20182;-55
2022/12/23 03:54:00;;;;;;;29.73;20.00;;;10.30;87.50;;;13.31;60.99;100237.47;5036260;28;20196;-54
2022/12/23 03:56:34;;;;;;;26.77;19.10;;;10.30;87.60;;;13.29;61.01;100231.56;5036490;28;20304;-55
2022/12/23 03:59:10;;;;;;;25.43;19.30;;;10.30;87.70;;;13.27;60.96;100228.34;5036589;28;20221;-57
2022/12/23 04:01:51;;;;;;;29.20;20.43;;;10.30;87.80;;;13.27;61.03;100228.34;5035058;28;20171;-54
2022/12/23 04:04:29;;;;;;;27.47;19.57;;;10.30;87.90;;;13.25;61.14;100234.84;5027145;28;20198;-55
2022/12/23 04:07:02;;;;;;;26.10;19.27;;;10.20;87.90;;;13.25;61.55;100233.00;5034121;28;20204;-52
2022/12/23 04:09:29;;;;;;;27.97;19.53;;;10.20;88.00;;;13.26;61.38;100242.59;5035849;28;20202;-55
2022/12/23 04:11:57;;;;;;;27.03;20.20;;;10.20;88.10;;;13.26;61.16;100247.88;5036525;28;20293;-54
2022/12/23 04:14:24;;;;;;;30.10;20.33;;;10.20;88.20;;;13.26;61.26;100249.69;5036259;28;20205;-53
2022/12/23 04:16:56;;;;;;;27.47;19.33;;;10.20;88.20;;;13.26;61.25;100252.34;5031781;28;20620;-55
2022/12/23 04:19:24;;;;;;;25.87;19.13;;;10.20;88.30;;;13.25;61.30;100251.50;5017284;28;20219;-55
2022/12/23 04:21:53;;;;;;;27.60;20.33;;;10.20;88.20;;;13.23;61.17;100258.84;5014995;28;20188;-54
2022/12/23 04:24:20;;;;;;;28.27;19.63;;;10.20;88.20;;;13.21;61.42;100262.69;5015978;28;20201;-52
2022/12/23 04:26:47;;;;;;;24.67;18.63;;;10.20;88.20;;;13.18;61.30;100263.91;5015463;28;20664;-52
2022/12/23 04:29:14;;;;;;;26.90;19.17;;;10.10;88.10;;;13.17;61.45;100264.91;5014789;28;20253;-53
2022/12/23 04:31:41;;;;;;;29.03;19.77;;;10.10;88.30;;;13.14;61.44;100265.34;5028689;28;20571;-55
2022/12/23 04:34:08;;;;;;;27.63;18.90;;;10.10;88.30;;;13.14;61.59;100275.09;5036193;28;20230;-53
2022/12/23 04:36:37;;;;;;;27.03;18.70;;;10.10;88.40;;;13.13;61.42;100269.00;5038070;28;20659;-54
2022/12/23 04:39:04;;;;;;;26.60;19.30;;;10.10;88.50;;;13.13;61.49;100274.28;5034389;28;20234;-54
2022/12/23 04:41:32;;;;;;;24.20;18.67;;;10.10;88.50;;;13.12;61.53;100277.91;5034528;28;20292;-54
2022/12/23 04:43:59;;;;;;;25.90;17.97;;;10.10;88.60;;;13.12;61.62;100283.22;5034247;28;20206;-52
2022/12/23 04:46:26;;;;;;;26.10;18.43;;;10.10;88.60;;;13.10;61.55;100277.31;5034804;28;20273;-54
2022/12/23 04:48:53;;;;;;;30.27;20.07;;;10.10;88.70;;;13.11;61.64;100281.59;5034095;28;20222;-55
2022/12/23 04:51:20;;;;;;;28.27;20.77;;;10.10;88.80;;;13.12;61.74;100280.56;5034596;28;20659;-54
2022/12/23 04:53:48;;;;;;;28.87;20.03;;;10.10;88.90;;;13.14;61.63;100291.78;5034837;28;20198;-53
2022/12/23 04:56:15;;;;;;;28.97;20.80;;;10.10;88.90;;;13.17;61.91;100295.84;5034578;28;20572;-54
2022/12/23 04:58:42;;;;;;;29.07;20.30;;;10.10;89.00;;;13.17;61.92;100294.00;5023352;28;20250;-54
2022/12/23 05:01:10;;;;;;;28.93;20.00;;;10.10;88.90;;;13.15;61.83;100296.03;5032821;28;20229;-56
2022/12/23 05:03:39;;;;;;;29.93;20.60;;;10.10;88.90;;;13.15;61.68;100293.38;5034719;28;20527;-55
2022/12/23 05:06:07;;;;;;;29.57;20.90;;;10.10;88.80;;;13.14;61.79;100304.16;5034269;28;20203;-52
2022/12/23 05:08:35;;;;;;;29.67;20.27;;;10.10;88.70;;;13.11;61.71;100297.44;5033610;28;20655;-54
2022/12/23 05:11:03;;;;;;;30.37;20.73;;;10.10;88.70;;;13.07;61.88;100296.25;5034289;28;20186;-52
2022/12/23 05:13:30;;;;;;;27.73;19.57;;;10.10;88.70;;;13.06;61.91;100293.78;5014300;28;20196;-55
2022/12/23 05:15:57;;;;;;;32.37;21.40;;;10.10;88.70;;;13.04;61.89;100291.31;5014461;28;20223;-55
2022/12/23 05:18:24;;;;;;;27.57;20.00;;;10.00;88.70;;;13.03;62.15;100294.97;5014314;28;20196;-52
2022/12/23 05:20:51;;;;;;;32.83;21.83;;;10.00;88.70;;;13.00;61.97;100300.66;5033995;28;20193;-55
2022/12/23 05:23:18;;;;;;;30.70;22.43;;;10.00;88.70;;;12.98;62.10;100307.94;5033595;28;20554;-52
2022/12/23 05:25:51;;;;;;;31.23;22.63;;;10.00;88.70;;;12.95;62.03;100313.66;5033843;28;20192;-53
2022/12/23 05:28:21;;;;;;;36.70;24.50;;;10.00;88.70;;;12.92;62.02;100314.06;5033770;28;20253;-53
2022/12/23 05:30:48;;;;;;;32.13;22.40;;;10.00;88.80;;;12.92;61.99;100314.06;5033845;28;20639;-51
2022/12/23 05:33:15;;;;;;;34.67;21.97;;;10.00;88.90;;;12.93;62.18;100322.78;5041093;28;20191;-57
2022/12/23 05:35:42;;;;;;;32.60;21.43;;;9.90;90.00;;;12.90;62.04;100326.66;5041909;28;20212;-55
2022/12/23 05:38:09;;;;;;;34.77;23.83;;;9.90;90.00;;;12.92;62.36;100329.91;5036144;28;20225;-54
2022/12/23 05:40:36;;;;;;;35.13;23.57;;;9.90;90.20;;;12.93;62.44;100331.53;5023893;28;20214;-54
2022/12/23 05:43:03;;;;;;;31.83;21.70;;;9.90;90.20;;;12.95;62.32;100329.50;5022798;28;20626;-57
2022/12/23 05:45:34;;;;;;;34.03;24.07;;;9.90;90.20;;;12.97;62.10;100327.47;5024996;28;20198;-56
2022/12/23 05:48:01;;;;;;;35.60;23.57;;;9.90;90.20;;;13.00;62.52;100320.97;5028167;28;20279;-54
2022/12/23 05:50:28;;;;;;;35.30;23.80;;;10.00;89.50;;;13.04;62.32;100323.03;5043450;28;20214;-54
2022/12/23 05:52:56;;;;;;;32.83;23.03;;;10.00;89.50;;;13.06;62.44;100328.94;5035226;28;20195;-56
2022/12/23 05:55:24;;;;;;;37.07;25.17;;;10.00;89.40;;;13.07;62.27;100314.72;5024910;28;20266;-55
2022/12/23 05:57:51;;;;;;;33.93;23.80;;;10.00;89.40;;;13.08;62.30;100313.69;5022856;28;20215;-55
2022/12/23 06:00:20;;;;;;;35.37;22.43;;;10.00;89.20;;;13.06;62.15;100320.19;5023429;28;20207;-55
2022/12/23 06:02:48;;;;;;;34.47;22.77;;;10.00;88.90;;;13.04;62.12;100322.19;5020829;28;20198;-55
2022/12/23 06:05:21;;;;;;;33.13;22.20;;;10.10;88.90;;;13.02;62.49;100324.22;5018203;28;20210;-55
2022/12/23 06:07:48;;;;;;;30.27;20.10;;;10.10;89.20;;;13.02;62.53;100321.59;5033822;28;20252;-55
2022/12/23 06:10:15;;;;;;;34.27;22.30;;;10.10;89.20;;;13.02;62.30;100324.22;5060448;28;20606;-56
2022/12/23 06:12:42;;;;;;;40.47;26.43;;;10.10;89.10;;;13.02;62.39;100325.06;5044988;28;20655;-55
2022/12/23 06:15:10;;;;;;;36.37;25.20;;;10.10;89.10;;;13.04;62.29;100323.03;5044319;28;20304;-55
2022/12/23 06:17:37;;;;;;;40.77;27.17;;;10.10;89.10;;;13.07;62.37;100335.88;5045184;28;20214;-56
2022/12/23 06:20:09;;;;;;;39.53;24.73;;;10.10;89.20;;;13.06;62.05;100336.88;5046621;28;20238;-57
2022/12/23 06:22:46;;;;;;;33.83;22.43;;;10.10;88.90;;;13.07;62.42;100338.50;5047934;28;20190;-55
2022/12/23 06:25:13;;;;;;;37.93;25.50;;;10.10;89.00;;;13.08;62.23;100336.66;5046991;28;20199;-53
2022/12/23 06:27:40;;;;;;;38.13;25.93;;;10.10;89.00;;;13.09;62.23;100330.38;5042406;28;20187;-55
2022/12/23 06:30:09;;;;;;;41.50;27.93;;;10.10;88.90;;;13.09;62.18;100331.19;5037012;28;20260;-53
2022/12/23 06:32:36;;;;;;;46.20;28.27;;;10.10;88.90;;;13.11;62.07;100342.38;5040817;28;20236;-57
2022/12/23 06:35:08;;;;;;;40.60;24.53;;;10.10;88.90;;;13.10;62.10;100353.94;5042207;28;20277;-56
2022/12/23 06:37:35;;;;;;;42.43;25.97;;;10.10;88.90;;;13.09;62.10;100352.34;5039705;28;20225;-57
2022/12/23 06:40:03;;;;;;;40.07;24.67;;;10.10;88.90;;;13.09;62.08;100352.34;5039766;28;20236;-55
2022/12/23 06:42:30;;;;;;;36.93;23.40;;;10.00;89.00;;;13.11;62.36;100350.28;5040119;28;20253;-52
2022/12/23 06:44:57;;;;;;;45.07;27.70;;;10.10;89.30;;;13.15;62.29;100346.22;5039987;28;20273;-55
2022/12/23 06:47:23;;;;;;;38.93;24.73;;;10.10;89.40;;;13.18;62.22;100361.69;5039869;28;20195;-56
2022/12/23 06:49:50;;;;;;;42.27;25.97;;;10.10;89.30;;;13.19;62.07;100375.72;5041437;28;20214;-55
2022/12/23 06:52:19;;;;;;;42.33;26.00;;;10.10;89.00;;;13.16;61.93;100390.16;5041752;28;20194;-55
2022/12/23 06:54:46;;;;;;;35.43;24.30;;;10.10;88.80;;;13.14;62.12;100397.47;5039215;28;20191;-56
2022/12/23 06:57:13;;;;;;;36.90;22.90;;;10.10;88.70;;;13.11;61.95;100392.56;5041712;28;20655;-56
2022/12/23 06:59:40;;;;;;;40.20;24.23;;;10.10;88.70;;;13.09;62.12;100381.41;5042538;28;20302;-55
2022/12/23 07:02:09;;;;;;;39.00;25.20;;;10.10;88.80;;;13.10;62.06;100383.00;5031967;28;20202;-54
2022/12/23 07:04:37;;;;;;;33.97;23.07;;;10.10;88.90;;;13.08;62.11;100390.31;5020694;28;20206;-56
2022/12/23 07:07:04;;;;;;;35.53;22.63;;;10.10;88.90;;;13.09;62.09;100386.69;5021159;28;20188;-56
2022/12/23 07:09:32;;;;;;;58.20;32.17;;;10.10;89.00;;;13.09;62.33;100378.75;5023101;28;20219;-55
2022/12/23 07:12:01;;;;;;;39.63;24.23;;;10.10;89.30;;;13.11;62.44;100375.91;5021272;28;20198;-55
2022/12/23 07:14:28;;;;;;;33.90;22.57;;;10.10;89.40;;;13.11;62.32;100392.56;5023425;28;20195;-55
2022/12/23 07:16:55;;;;;;;35.63;23.47;;;10.10;89.30;;;13.11;62.26;100389.94;5042303;28;20226;-55
2022/12/23 07:19:22;;;;;;;34.70;22.60;;;10.10;89.10;;;13.09;62.20;100399.91;5041739;28;20206;-56
2022/12/23 07:21:49;;;;;;;33.60;22.63;;;10.10;89.10;;;13.09;62.25;100397.25;5039288;28;20621;-56
2022/12/23 07:24:16;;;;;;;31.40;21.03;;;10.10;89.00;;;13.07;62.31;100401.94;5038157;28;20190;-56
2022/12/23 07:26:44;;;;;;;33.77;22.20;;;10.10;89.10;;;13.09;62.31;100407.81;5038490;28;20245;-54
2022/12/23 07:29:11;;;;;;;35.07;23.63;;;10.10;89.10;;;13.10;62.27;100411.28;5038158;28;20297;-56
2022/12/23 07:31:38;;;;;;;38.20;24.03;;;10.10;89.20;;;13.08;62.14;100411.47;5025344;28;20204;-55
2022/12/23 07:34:07;;;;;;;41.50;26.20;;;10.00;89.00;;;13.07;62.13;100411.66;5016328;28;20249;-56
2022/12/23 07:36:34;;;;;;;38.23;24.27;;;10.00;88.90;;;13.05;62.21;100409.19;5017550;28;20207;-56
2022/12/23 07:39:02;;;;;;;33.53;21.30;;;10.00;89.00;;;13.02;62.02;100409.59;5019790;28;20647;-57
2022/12/23 07:41:30;;;;;;;37.90;22.57;;;10.00;89.00;;;12.99;62.01;100412.63;5019268;28;20225;-55
2022/12/23 07:43:58;;;;;;;32.23;21.23;;;10.00;88.90;;;12.97;62.12;100422.56;5018282;28;20619;-56
2022/12/23 07:46:25;;;;;;;33.10;21.27;;;10.00;89.00;;;12.97;62.27;100427.88;5020114;28;20205;-56
2022/12/23 07:48:52;;;;;;;35.20;21.87;;;10.00;89.10;;;12.97;62.26;100435.78;5017577;28;20223;-56
2022/12/23 07:51:19;;;;;;;28.47;18.93;;;10.00;89.20;;;12.97;61.95;100440.25;5018900;28;20203;-55
2022/12/23 07:53:48;;;;;;;29.17;19.43;;;10.00;89.10;;;12.95;62.15;100437.81;5017716;28;20556;-55
2022/12/23 07:56:16;;;;;;;30.70;18.87;;;10.00;89.00;;;12.93;62.37;100442.47;5019596;28;20563;-52
2022/12/23 07:58:46;;;;;;;30.47;21.07;;;9.90;90.00;;;12.93;62.30;100438.00;5018672;28;20250;-56
2022/12/23 08:01:15;;;;;;;34.60;20.73;;;10.00;89.10;;;12.94;62.25;100444.09;5037462;28;20205;-54
2022/12/23 08:03:42;;;;;;;35.40;21.60;;;9.90;90.10;;;12.96;62.27;100457.91;5036763;28;20198;-54
2022/12/23 08:06:12;;;;;;;31.67;21.47;;;10.00;89.20;;;12.95;62.18;100463.41;5037605;28;20187;-56
2022/12/23 08:08:41;;;;;;;33.67;22.37;;;10.00;89.10;;;12.91;62.24;100460.34;5036692;28;20230;-53
2022/12/23 08:11:11;;;;;;;34.97;21.23;;;9.90;90.00;;;12.89;62.17;100467.66;5021763;28;20559;-52
2022/12/23 08:13:41;;;;;;;30.63;20.23;;;9.90;90.00;;;12.87;62.18;100467.03;5035736;28;20250;-52
2022/12/23 08:16:09;;;;;;;30.80;20.63;;;9.90;90.10;;;12.86;62.31;100466.22;5035514;28;20513;-53
2022/12/23 08:18:40;;;;;;;32.60;20.90;;;9.90;90.10;;;12.85;62.44;100461.94;5034958;28;20626;-52
2022/12/23 08:21:12;;;;;;;34.07;21.03;;;9.90;90.10;;;12.85;62.26;100471.69;5043252;28;20489;-54
2022/12/23 08:23:39;;;;;;;31.10;19.30;;;9.90;90.10;;;12.86;62.47;100470.66;5040800;28;20186;-56
2022/12/23 08:26:09;;;;;;;32.27;19.07;;;9.90;90.10;;;12.87;62.50;100485.53;5022047;28;20210;-55
2022/12/23 08:28:38;;;;;;;35.73;21.33;;;9.90;90.10;;;12.84;62.46;100485.91;5020392;28;20269;-56
2022/12/23 08:31:08;;;;;;;32.80;20.73;;;9.90;90.00;;;12.85;62.50;100495.47;5019683;28;20218;-55
2022/12/23 08:33:38;;;;;;;31.43;20.33;;;9.90;90.00;;;12.85;62.49;100498.94;5019914;28;20526;-55
2022/12/23 08:36:09;;;;;;;31.07;20.77;;;9.90;90.10;;;12.87;62.59;100501.38;5020157;28;20190;-61
2022/12/23 08:38:36;;;;;;;30.50;19.60;;;9.90;90.10;;;12.89;62.47;100504.63;5019432;28;20710;-54
2022/12/23 08:41:08;;;;;;;31.97;20.43;;;9.90;90.10;;;12.90;62.23;100495.69;5039634;28;20213;-57
2022/12/23 08:43:35;;;;;;;31.87;19.57;;;10.00;89.20;;;12.92;62.29;100493.69;5039255;28;20228;-56
2022/12/23 08:46:03;;;;;;;30.77;19.53;;;10.00;89.20;;;12.96;62.38;100496.72;5037179;28;20512;-55
2022/12/23 08:48:30;;;;;;;30.10;19.73;;;10.00;89.20;;;12.98;62.62;100503.44;5037043;28;20201;-56
2022/12/23 08:51:03;;;;;;;30.20;20.03;;;10.00;89.30;;;13.03;62.41;100500.22;5033562;28;20615;-54
2022/12/23 08:53:31;;;;;;;32.90;20.33;;;10.00;89.20;;;13.06;62.20;100489.28;5028780;28;20781;-56
2022/12/23 08:56:02;;;;;;;29.97;18.53;;;10.00;89.20;;;13.08;62.21;100493.38;5039200;28;20190;-57
2022/12/23 08:58:30;;;;;;;28.70;17.60;;;10.10;89.20;;;13.09;62.06;100494.19;5038430;28;20512;-56
2022/12/23 09:01:01;;;;;;;29.10;18.97;;;10.10;89.20;;;13.11;62.26;100498.28;5038870;28;20853;-57
2022/12/23 09:03:29;;;;;;;31.97;19.90;;;10.10;89.20;;;13.15;62.17;100486.28;5038670;28;20497;-54
2022/12/23 09:05:56;;;;;;;30.10;18.67;;;10.10;89.10;;;13.20;62.27;100485.69;5037611;28;20209;-54
2022/12/23 09:08:24;;;;;;;30.90;19.00;;;10.10;89.20;;;13.25;61.99;100478.81;5037094;28;20680;-59
2022/12/23 09:10:51;;;;;;;27.37;18.37;;;10.20;89.10;;;13.27;62.04;100471.50;5038548;28;20231;-56
2022/12/23 09:13:18;;;;;;;32.27;21.00;;;10.20;89.00;;;13.33;61.94;100464.59;5038026;28;20682;-56
2022/12/23 09:15:56;;;;;;;32.27;23.23;;;10.20;89.00;;;13.35;61.96;100458.09;5037611;28;20273;-55
2022/12/23 09:18:23;;;;;;;40.40;27.33;;;10.30;89.10;;;13.43;61.97;100449.19;5037062;28;20217;-56
2022/12/23 09:20:57;;;;;;;38.60;25.67;;;10.30;89.30;;;13.48;61.84;100467.88;5026417;28;20222;-56
2022/12/23 09:23:26;;;;;;;34.53;21.40;;;10.30;89.00;;;13.51;61.65;100467.50;5030447;28;20665;-55
2022/12/23 09:25:54;;;;;;;28.87;19.47;;;10.40;88.70;;;13.52;61.65;100463.84;5036371;28;20198;-55
2022/12/23 09:28:22;;;;;;;29.70;20.50;;;10.40;88.70;;;13.55;61.48;100474.81;5034185;28;20187;-56
2022/12/23 09:30:50;;;;;;;32.73;20.87;;;10.40;88.40;;;13.58;61.53;100479.72;5035363;28;20190;-55
2022/12/23 09:33:18;;;;;;;31.53;19.67;;;10.40;88.20;;;13.60;61.48;100481.34;5018372;28;20195;-58
2022/12/23 09:35:45;;;;;;;29.33;18.63;;;10.50;88.20;;;13.63;61.42;100487.03;5016412;28;20191;-56
2022/12/23 09:38:13;;;;;;;29.33;18.57;;;10.50;88.40;;;13.70;61.27;100481.75;5015901;28;20258;-57
2022/12/23 09:40:41;;;;;;;27.90;17.60;;;10.50;88.40;;;13.73;61.10;100487.47;5016748;28;20195;-55
2022/12/23 09:43:23;;;;;;;27.03;17.27;;;10.60;88.40;;;13.76;61.18;100491.56;5016096;28;20202;-55
2022/12/23 09:46:07;;;;;;;28.33;17.97;;;10.60;88.20;;;13.77;61.10;100499.28;5031598;28;20190;-53
2022/12/23 09:48:44;;;;;;;29.03;19.77;;;10.60;87.90;;;13.81;60.84;100494.41;5036252;28;20182;-55
2022/12/23 09:51:13;;;;;;;25.90;16.80;;;10.70;88.20;;;13.83;61.03;100497.66;5036413;28;20186;-55
2022/12/23 09:53:53;;;;;;;31.23;21.27;;;10.70;88.10;;;13.81;60.63;100494.41;5036686;28;20550;-55
2022/12/23 09:56:33;;;;;;;29.17;18.13;;;10.70;87.50;;;13.80;60.90;100495.41;5036082;28;20206;-55
2022/12/23 09:59:13;;;;;;;28.77;17.87;;;10.80;87.60;;;13.82;60.80;100496.03;5035763;28;20686;-55
2022/12/23 10:01:49;;;;;;;27.27;17.10;;;10.80;87.40;;;13.85;60.63;100490.34;5035525;28;20217;-57
2022/12/23 10:04:41;;;;;;;24.50;15.30;;;10.80;88.10;;;13.85;60.60;100485.88;5035813;28;20256;-55
2022/12/23 10:07:28;;;;;;;25.57;15.50;;;10.80;87.30;;;13.88;60.78;100487.31;5035621;28;20274;-56
2022/12/23 10:10:02;;;;;;;30.67;19.50;;;10.90;87.60;;;13.88;60.11;100492.59;5036180;28;20218;-54
2022/12/23 10:12:38;;;;;;;25.50;16.80;;;10.90;86.60;;;13.85;60.40;100487.69;5036225;28;20210;-53
2022/12/23 10:15:20;;;;;;;30.17;19.50;;;10.90;86.80;;;13.86;60.15;100481.41;5032901;28;20227;-54
2022/12/23 10:17:54;;;;;;;29.73;19.23;;;10.90;86.60;;;13.85;60.24;100474.47;5033582;28;20207;-55
2022/12/23 10:20:36;;;;;;;30.90;20.30;;;10.90;86.50;;;13.79;60.30;100462.84;5033023;28;20332;-54
2022/12/23 10:23:11;;;;;;;32.00;19.90;;;10.90;86.20;;;13.79;60.46;100464.69;5033519;28;20192;-55
2022/12/23 10:25:48;;;;;;;27.30;18.00;;;10.90;86.20;;;13.75;60.61;100460.81;5033640;28;20194;-54
2022/12/23 10:28:16;;;;;;;28.37;19.40;;;10.90;86.10;;;13.74;60.50;100467.13;5034340;28;20205;-55
2022/12/23 10:30:54;;;;;;;30.30;20.00;;;10.90;86.20;;;13.69;60.46;100459.00;5034089;28;20569;-53
2022/12/23 10:33:58;;;;;;;29.30;19.40;;;10.90;86.20;;;13.66;60.58;100469.97;5033989;28;20257;-51
2022/12/23 10:36:38;;;;;;;32.63;20.47;;;10.90;86.30;;;13.62;60.51;100458.16;5033964;28;20273;-55
2022/12/23 10:39:23;;;;;;;31.07;19.80;;;10.80;86.20;;;13.62;60.72;100471.38;5033430;28;20233;-54
2022/12/23 10:42:11;;;;;;;29.90;19.83;;;10.80;86.30;;;13.62;60.57;100468.75;5032901;28;20562;-54